createdAt,value
2019-04-29T00:00:50.936Z,21.45
2019-04-29T00:07:00.478Z,21.25
2019-04-29T00:09:58.228Z,21.48
2019-04-29T00:19:45.816Z,21.17
2019-04-29T00:31:26.735Z,18.62
2019-04-29T00:34:20.457Z,17.17
2019-04-29T00:40:20.660Z,21.90
2019-04-29T00:46:29.517Z,23.20
2019-04-29T00:55:18.759Z,20.02
2019-04-29T00:58:27.412Z,21.65
2019-04-29T01:01:27.440Z,21.70
2019-04-29T01:04:21.136Z,22.85
2019-04-29T01:07:12.295Z,22.77
2019-04-29T01:09:54.593Z,27.67
2019-04-29T01:12:42.936Z,22.27
2019-04-29T01:16:05.565Z,21.65
2019-04-29T01:18:18.802Z,23.22
2019-04-29T01:21:27.025Z,22.48
2019-04-29T01:24:12.860Z,23.75
2019-04-29T01:33:15.314Z,25.30
2019-04-29T01:39:53.569Z,27.60
2019-04-29T01:49:01.625Z,28.05
2019-04-29T01:52:00.143Z,27.87
2019-04-29T01:54:47.859Z,30.25
2019-04-29T01:57:35.198Z,31.40
2019-04-29T02:06:37.026Z,26.90
2019-04-29T02:15:22.465Z,31.10
2019-04-29T02:24:19.438Z,31.42
2019-04-29T02:27:07.135Z,33.33
2019-04-29T02:30:31.483Z,34.58
2019-04-29T02:33:04.211Z,34.92
2019-04-29T02:39:13.117Z,36.17
2019-04-29T02:50:54.292Z,37.53
2019-04-29T02:57:18.745Z,33.15
2019-04-29T03:00:24.454Z,34.20
2019-04-29T03:03:22.840Z,36.50
2019-04-29T03:07:57.702Z,38.48
2019-04-29T03:08:59.745Z,35.40
2019-04-29T03:12:01.629Z,38.73
2019-04-29T03:15:16.100Z,43.35
2019-04-29T03:20:45.232Z,43.10
2019-04-29T03:23:22.119Z,39.20
2019-04-29T03:29:16.035Z,42.67
2019-04-29T03:35:24.680Z,41.02
2019-04-29T03:48:09.128Z,47.53
2019-04-29T03:52:13.739Z,50.00
2019-04-29T03:55:53.106Z,49.85
2019-04-29T04:10:30.670Z,45.20
2019-04-29T04:13:45.582Z,47.03
2019-04-29T04:32:33.763Z,50.63
2019-04-29T04:35:15.263Z,51.15
2019-04-29T04:37:50.380Z,51.17
2019-04-29T04:43:24.397Z,46.40
2019-04-29T04:46:05.486Z,49.10
2019-04-29T04:48:54.074Z,53.23
2019-04-29T04:51:29.977Z,49.53
2019-04-29T04:54:01.089Z,50.83
2019-04-29T04:56:43.605Z,53.75
2019-04-29T05:02:20.180Z,50.17
2019-04-29T05:04:53.853Z,44.80
2019-04-29T05:07:37.295Z,51.23
2019-04-29T05:10:25.032Z,45.78
2019-04-29T05:12:59.940Z,45.63
2019-04-29T05:15:40.455Z,50.25
2019-04-29T05:18:19.904Z,49.80
2019-04-29T05:21:31.294Z,47.13
2019-04-29T05:23:52.942Z,49.98
2019-04-29T05:26:47.117Z,43.83
2019-04-29T05:29:28.568Z,44.90
2019-04-29T05:40:51.550Z,47.33
2019-04-29T05:46:52.323Z,45.73
2019-04-29T05:49:41.633Z,49.40
2019-04-29T05:52:29.997Z,42.35
2019-04-29T05:55:42.155Z,39.92
2019-04-29T06:01:05.656Z,44.33
2019-04-29T06:03:55.186Z,43.85
2019-04-29T06:06:36.951Z,37.50
2019-04-29T06:09:16.857Z,32.93
2019-04-29T06:15:02.399Z,33.60
2019-04-29T06:17:47.439Z,37.20
2019-04-29T06:20:44.716Z,32.38
2019-04-29T06:23:24.635Z,31.93
2019-04-29T06:35:25.261Z,32.48
2019-04-29T06:38:17.726Z,29.00
2019-04-29T06:41:05.456Z,28.77
2019-04-29T06:46:40.982Z,27.45
2019-04-29T06:49:41.115Z,28.07
2019-04-29T06:52:50.132Z,28.77
2019-04-29T06:55:02.991Z,27.65
2019-04-29T06:57:45.373Z,27.35
2019-04-29T07:06:38.811Z,26.10
2019-04-29T07:09:24.430Z,25.57
2019-04-29T07:12:19.239Z,24.60
2019-04-29T07:15:01.941Z,26.02
2019-04-29T07:20:45.021Z,22.95
2019-04-29T07:23:34.185Z,23.80
2019-04-29T07:28:55.630Z,22.52
2019-04-29T07:31:43.048Z,22.65
2019-04-29T07:34:39.634Z,23.30
2019-04-29T07:37:24.963Z,21.40
2019-04-29T07:40:23.950Z,21.77
2019-04-29T07:43:10.926Z,21.10
2019-04-29T07:45:54.550Z,20.02
2019-04-29T07:49:00.348Z,21.60
2019-04-29T07:51:23.993Z,20.23
2019-04-29T08:01:09.494Z,18.57
2019-04-29T08:03:56.765Z,20.15
2019-04-29T08:06:55.167Z,17.75
2019-04-29T08:12:48.923Z,16.93
2019-04-29T08:15:26.324Z,18.02
2019-04-29T08:18:34.876Z,16.73
2019-04-29T08:21:00.037Z,16.20
2019-04-29T08:23:42.417Z,18.23
2019-04-29T08:26:49.322Z,20.05
2019-04-29T08:32:51.053Z,17.92
2019-04-29T08:35:53.176Z,16.10
2019-04-29T08:38:46.229Z,15.32
2019-04-29T08:44:25.417Z,18.27
2019-04-29T08:50:19.340Z,13.80
2019-04-29T08:52:51.317Z,15.15
2019-04-29T08:55:30.998Z,14.53
2019-04-29T08:58:19.667Z,15.63
2019-04-29T09:01:41.609Z,16.42
2019-04-29T09:04:15.366Z,14.07
2019-04-29T09:06:53.700Z,13.85
2019-04-29T09:09:42.790Z,13.35
2019-04-29T09:15:15.672Z,15.75
2019-04-29T09:24:08.269Z,16.77
2019-04-29T09:30:15.308Z,19.82
2019-04-29T09:36:15.202Z,19.40
2019-04-29T09:39:13.700Z,21.60
2019-04-29T09:42:35.281Z,15.58
2019-04-29T09:45:14.594Z,14.30
2019-04-29T09:48:11.300Z,15.00
2019-04-29T09:50:55.285Z,14.65
2019-04-29T09:57:03.142Z,13.03
2019-04-29T10:05:57.170Z,14.18
2019-04-29T10:11:50.011Z,13.98
2019-04-29T10:14:22.566Z,14.70
2019-04-29T10:17:20.670Z,14.47
2019-04-29T10:20:00.568Z,14.13
2019-04-29T10:22:50.253Z,13.38
2019-04-29T10:25:39.252Z,10.93
2019-04-29T10:28:20.049Z,23.70
2019-04-29T10:39:34.631Z,18.85
2019-04-29T10:48:14.691Z,13.60
2019-04-29T10:50:53.898Z,13.85
2019-04-29T10:56:39.444Z,13.50
2019-04-29T10:59:20.206Z,12.98
2019-04-29T11:05:26.120Z,14.75
2019-04-29T11:08:18.293Z,16.93
2019-04-29T11:11:05.231Z,18.42
2019-04-29T11:13:53.149Z,12.68
2019-04-29T11:20:11.015Z,15.48
2019-04-29T11:22:48.138Z,24.35
2019-04-29T11:25:55.745Z,13.65
2019-04-29T11:29:09.632Z,42.33
2019-04-29T11:31:27.357Z,15.48
2019-04-29T11:34:18.464Z,17.20
2019-04-29T11:36:57.120Z,13.83
2019-04-29T11:39:46.187Z,16.07
2019-04-29T11:42:31.903Z,24.65
2019-04-29T11:45:29.687Z,16.62
2019-04-29T11:55:18.507Z,18.15
2019-04-29T11:57:56.900Z,18.75
2019-04-29T12:01:16.405Z,14.53
2019-04-29T12:06:40.510Z,14.90
2019-04-29T12:09:16.319Z,18.35
2019-04-29T12:14:57.181Z,14.15
2019-04-29T12:18:06.978Z,15.28
2019-04-29T12:20:49.514Z,18.20
2019-04-29T12:23:31.086Z,17.57
2019-04-29T12:26:26.764Z,18.07
2019-04-29T12:29:20.643Z,16.85
2019-04-29T12:31:58.286Z,15.68
2019-04-29T12:35:07.963Z,14.60
2019-04-29T12:38:00.644Z,15.45
2019-04-29T12:40:52.058Z,16.90
2019-04-29T12:43:41.678Z,14.68
2019-04-29T12:49:24.349Z,17.25
2019-04-29T12:52:19.000Z,15.95
2019-04-29T12:55:19.235Z,17.42
2019-04-29T12:57:35.261Z,17.25
2019-04-29T13:00:19.146Z,15.95
2019-04-29T13:03:19.664Z,16.10
2019-04-29T13:06:39.742Z,21.95
2019-04-29T13:09:17.664Z,17.77
2019-04-29T13:12:17.719Z,14.25
2019-04-29T13:15:02.906Z,27.27
2019-04-29T13:18:03.164Z,16.27
2019-04-29T13:29:26.245Z,17.17
2019-04-29T13:32:36.574Z,18.25
2019-04-29T13:35:50.425Z,19.37
2019-04-29T13:38:17.715Z,19.17
2019-04-29T13:41:12.777Z,14.87
2019-04-29T13:44:05.322Z,15.23
2019-04-29T13:46:55.232Z,18.23
2019-04-29T13:49:49.868Z,12.45
2019-04-29T13:52:24.372Z,14.30
2019-04-29T13:55:20.014Z,16.90
2019-04-29T13:57:55.985Z,14.20
2019-04-29T14:00:44.817Z,20.70
2019-04-29T14:04:00.898Z,16.35
2019-04-29T14:06:39.927Z,14.33
2019-04-29T14:09:13.961Z,17.57
2019-04-29T14:11:45.987Z,19.48
2019-04-29T14:14:22.751Z,15.07
2019-04-29T14:17:17.402Z,14.98
2019-04-29T14:19:41.037Z,17.55
2019-04-29T14:22:06.673Z,15.25
2019-04-29T14:24:36.987Z,15.97
2019-04-29T14:27:08.767Z,15.85
2019-04-29T14:29:39.013Z,18.55
2019-04-29T14:32:09.574Z,15.23
2019-04-29T14:34:57.756Z,14.93
2019-04-29T14:37:28.157Z,14.53
2019-04-29T14:39:58.349Z,17.55
2019-04-29T14:42:57.538Z,15.90
2019-04-29T14:45:22.159Z,15.48
2019-04-29T14:48:09.942Z,22.13
2019-04-29T14:50:41.365Z,13.93
2019-04-29T14:55:40.960Z,18.25
2019-04-29T14:58:11.713Z,14.18
2019-04-29T15:00:52.602Z,16.77
2019-04-29T15:03:24.330Z,16.07
2019-04-29T15:05:54.365Z,17.12
2019-04-29T15:08:24.761Z,16.15
2019-04-29T15:10:54.976Z,14.10
2019-04-29T15:13:26.011Z,15.58
2019-04-29T15:16:09.662Z,16.25
2019-04-29T15:18:50.061Z,14.03
2019-04-29T15:21:32.627Z,14.40
2019-04-29T15:24:17.760Z,21.60
2019-04-29T15:26:55.052Z,14.95
2019-04-29T15:29:43.824Z,16.82
2019-04-29T15:32:36.224Z,17.15
2019-04-29T15:35:08.425Z,15.18
2019-04-29T15:37:49.285Z,15.35
2019-04-29T15:40:20.769Z,15.80
2019-04-29T15:42:54.496Z,14.13
2019-04-29T15:45:27.998Z,18.67
2019-04-29T15:47:56.532Z,18.80
2019-04-29T15:50:26.637Z,14.25
2019-04-29T15:52:58.809Z,13.85
2019-04-29T15:57:57.844Z,14.10
2019-04-29T16:00:36.690Z,18.00
2019-04-29T16:03:01.393Z,12.85
2019-04-29T16:05:56.049Z,14.93
2019-04-29T16:08:12.771Z,14.78
2019-04-29T16:10:44.637Z,15.90
2019-04-29T16:13:22.496Z,14.53
2019-04-29T16:15:50.453Z,14.55
2019-04-29T16:18:20.576Z,16.37
2019-04-29T16:20:54.683Z,16.52
2019-04-29T16:23:25.403Z,14.50
2019-04-29T16:25:55.445Z,16.55
2019-04-29T16:28:31.574Z,19.12
2019-04-29T16:30:57.386Z,16.23
2019-04-29T16:33:27.558Z,11.00
2019-04-29T16:36:04.718Z,18.42
2019-04-29T16:38:29.619Z,16.40
2019-04-29T16:41:01.195Z,16.40
2019-04-29T16:43:33.266Z,20.43
2019-04-29T16:46:14.155Z,19.73
2019-04-29T16:48:44.271Z,16.27
2019-04-29T16:51:16.696Z,19.27
2019-04-29T16:53:46.270Z,15.45
2019-04-29T16:56:16.632Z,14.85
2019-04-29T16:58:46.996Z,18.45
2019-04-29T17:01:16.878Z,19.15
2019-04-29T17:03:48.343Z,20.87
2019-04-29T17:06:18.736Z,15.18
2019-04-29T17:09:05.230Z,15.15
2019-04-29T17:11:38.759Z,17.62
2019-04-29T17:14:19.178Z,21.25
2019-04-29T17:16:53.725Z,18.05
2019-04-29T17:19:23.932Z,18.10
2019-04-29T17:21:53.897Z,16.48
2019-04-29T17:24:24.033Z,19.85
2019-04-29T17:26:55.740Z,23.62
2019-04-29T17:29:39.847Z,16.40
2019-04-29T17:34:57.946Z,13.95
2019-04-29T17:37:14.947Z,25.90
2019-04-29T17:39:44.933Z,15.72
2019-04-29T17:42:15.074Z,17.77
2019-04-29T17:44:46.332Z,34.80
2019-04-29T17:47:27.303Z,25.15
2019-04-29T17:50:29.564Z,22.17
2019-04-29T17:52:50.071Z,20.00
2019-04-29T17:55:40.839Z,17.70
2019-04-29T17:58:17.114Z,16.65
2019-04-29T18:00:55.596Z,20.60
2019-04-29T18:03:30.302Z,18.00
2019-04-29T18:06:11.439Z,11.05
2019-04-29T18:08:55.332Z,15.53
2019-04-29T18:11:25.416Z,10.93
2019-04-29T18:13:56.948Z,18.90
2019-04-29T18:16:29.880Z,12.60
2019-04-29T18:19:01.980Z,14.70
2019-04-29T18:21:37.173Z,12.68
2019-04-29T18:24:10.231Z,21.75
2019-04-29T18:26:52.714Z,24.80
2019-04-29T18:31:52.667Z,23.30
2019-04-29T18:34:22.670Z,18.77
2019-04-29T18:36:54.586Z,16.90
2019-04-29T18:39:31.364Z,21.00
2019-04-29T18:42:03.355Z,21.68
2019-04-29T18:44:32.472Z,15.72
2019-04-29T18:47:02.543Z,22.35
2019-04-29T18:49:32.522Z,17.12
2019-04-29T18:52:05.686Z,19.10
2019-04-29T18:54:35.761Z,11.45
2019-04-29T18:57:06.059Z,11.12
2019-04-29T18:59:36.810Z,10.23
2019-04-29T19:02:09.353Z,16.90
2019-04-29T19:04:46.815Z,11.43
2019-04-29T19:07:15.487Z,16.20
2019-04-29T19:09:47.192Z,12.95
2019-04-29T19:12:17.187Z,22.70
2019-04-29T19:14:47.814Z,18.65
2019-04-29T19:17:21.577Z,86.00
2019-04-29T19:19:51.037Z,26.17
2019-04-29T19:22:21.180Z,20.50
2019-04-29T19:24:51.178Z,24.72
2019-04-29T19:27:21.438Z,15.78
2019-04-29T19:29:51.531Z,41.85
2019-04-29T19:32:23.069Z,66.12
2019-04-29T19:34:54.980Z,85.72
2019-04-29T19:37:28.374Z,36.65
2019-04-29T19:39:59.588Z,20.80
2019-04-29T19:42:35.544Z,21.57
2019-04-29T19:45:06.265Z,15.78
2019-04-29T19:47:36.191Z,19.65
2019-04-29T19:50:10.500Z,17.10
2019-04-29T19:52:41.056Z,16.42
2019-04-29T19:55:13.903Z,17.62
2019-04-29T19:57:50.165Z,15.23
2019-04-29T20:00:17.697Z,13.68
2019-04-29T20:02:50.453Z,15.28
2019-04-29T20:05:23.818Z,10.55
2019-04-29T20:07:55.907Z,16.12
2019-04-29T20:10:28.428Z,12.40
2019-04-29T20:12:57.724Z,14.20
2019-04-29T20:15:32.387Z,11.03
2019-04-29T20:18:13.693Z,12.20
2019-04-29T20:20:46.262Z,15.78
2019-04-29T20:23:26.185Z,11.48
2019-04-29T20:26:12.813Z,11.48
2019-04-29T20:28:31.655Z,12.20
2019-04-29T20:31:15.371Z,11.68
2019-04-29T20:33:46.968Z,12.98
2019-04-29T20:36:33.095Z,10.65
2019-04-29T20:39:23.288Z,9.90
2019-04-29T20:41:53.279Z,11.12
2019-04-29T20:44:23.385Z,16.35
2019-04-29T20:47:15.714Z,12.23
2019-04-29T20:49:26.648Z,11.60
2019-04-29T20:52:03.722Z,7.95
2019-04-29T20:54:36.281Z,14.53
2019-04-29T20:57:17.449Z,12.28
2019-04-29T20:59:56.564Z,17.02
2019-04-29T21:02:31.244Z,10.88
2019-04-29T21:04:58.707Z,10.05
2019-04-29T21:07:29.089Z,11.50
2019-04-29T21:09:59.868Z,10.53
2019-04-29T21:12:34.765Z,13.22
2019-04-29T21:15:16.369Z,15.00
2019-04-29T21:17:46.623Z,10.53
2019-04-29T21:20:17.340Z,13.78
2019-04-29T21:22:47.569Z,11.15
2019-04-29T21:25:18.990Z,15.88
2019-04-29T21:27:52.587Z,9.53
2019-04-29T21:30:27.249Z,14.43
2019-04-29T21:32:55.798Z,11.28
2019-04-29T21:35:36.562Z,13.10
2019-04-29T21:38:25.987Z,16.45
2019-04-29T21:41:07.666Z,10.78
2019-04-29T21:43:39.513Z,11.57
2019-04-29T21:46:09.752Z,13.95
2019-04-29T21:48:39.818Z,12.47
2019-04-29T21:51:11.119Z,14.98
2019-04-29T21:53:41.934Z,11.68
2019-04-29T21:56:12.484Z,10.68
2019-04-29T21:58:44.096Z,11.78
2019-04-29T22:01:16.971Z,14.33
2019-04-29T22:03:50.846Z,11.60
2019-04-29T22:06:29.007Z,15.13
2019-04-29T22:09:02.665Z,12.28
2019-04-29T22:11:43.578Z,11.10
2019-04-29T22:14:21.972Z,12.45
2019-04-29T22:16:56.907Z,13.85
2019-04-29T22:19:46.041Z,11.40
2019-04-29T22:22:19.697Z,10.35
2019-04-29T22:24:51.366Z,15.72
2019-04-29T22:27:27.254Z,10.30
2019-04-29T22:29:58.389Z,11.83
2019-04-29T22:32:32.563Z,11.45
2019-04-29T22:35:07.398Z,10.40
2019-04-29T22:37:40.942Z,11.43
2019-04-29T22:43:22.198Z,13.38
2019-04-29T22:48:30.223Z,12.70
2019-04-29T22:51:05.740Z,15.98
2019-04-29T22:53:43.913Z,13.35
2019-04-29T22:56:15.801Z,10.45
2019-04-29T22:58:53.700Z,14.70
2019-04-29T23:01:26.761Z,13.18
2019-04-29T23:03:59.354Z,11.75
2019-04-29T23:06:33.292Z,12.93
2019-04-29T23:09:07.664Z,17.62
2019-04-29T23:11:40.810Z,10.95
2019-04-29T23:14:15.255Z,13.40
2019-04-29T23:19:39.952Z,12.93
2019-04-29T23:22:22.242Z,11.25
2019-04-29T23:24:59.206Z,10.88
2019-04-29T23:27:32.749Z,15.65
2019-04-29T23:30:04.412Z,14.70
2019-04-29T23:32:39.473Z,11.45
2019-04-29T23:35:12.657Z,11.57
2019-04-29T23:37:46.801Z,12.03
2019-04-29T23:43:13.133Z,13.00
2019-04-29T23:45:46.135Z,10.65
2019-04-29T23:48:19.983Z,15.18
2019-04-29T23:50:55.858Z,13.48
2019-04-29T23:53:27.258Z,15.15
2019-04-29T23:58:47.198Z,17.95
